Time;durP1;ratioP1;P1;durP2;ratioP2;P2;SDS_P1;SDS_P2;PMS_P1;PMS_P2;Temp;Humidity;BMP_temperature;BMP_pressure;BME280_temperature;BME280_humidity;BME280_pressure;Samples;Min_cycle;Max_cycle;Signal;HPM_P1;HPM_P2
2022/08/14 00:01:18;;;;;;;11.25;4.55;;;22.50;90.30;;;;;;4994662;28;20050;-62
2022/08/14 00:03:46;;;;;;;9.15;5.07;;;22.40;90.50;;;;;;4994321;28;20055;-62
2022/08/14 00:06:13;;;;;;;11.10;4.60;;;22.40;90.70;;;;;;4994845;28;20106;-62
2022/08/14 00:08:40;;;;;;;5.25;4.43;;;22.30;90.90;;;;;;4994436;28;20046;-62
2022/08/14 00:11:06;;;;;;;6.72;5.07;;;22.30;91.20;;;;;;4994149;28;20097;-62
2022/08/14 00:13:34;;;;;;;8.38;4.72;;;22.20;91.40;;;;;;4994530;28;20050;-62
2022/08/14 00:16:01;;;;;;;5.90;4.43;;;22.20;91.60;;;;;;4977205;28;20129;-62
2022/08/14 00:18:28;;;;;;;5.65;5.03;;;22.10;91.80;;;;;;4994337;28;20101;-61
2022/08/14 00:20:59;;;;;;;7.50;5.15;;;22.10;92.00;;;;;;4976950;28;20081;-62
2022/08/14 00:23:26;;;;;;;6.25;4.78;;;22.10;92.20;;;;;;4993787;28;20122;-62
2022/08/14 00:25:56;;;;;;;7.45;4.88;;;22.00;92.40;;;;;;4993947;28;20494;-63
2022/08/14 00:28:25;;;;;;;8.00;5.00;;;21.90;92.60;;;;;;4977147;28;20050;-62
2022/08/14 00:30:55;;;;;;;9.90;5.80;;;21.90;92.70;;;;;;4994275;28;20054;-62
2022/08/14 00:33:22;;;;;;;7.93;5.10;;;21.90;93.00;;;;;;4993716;28;20061;-62
2022/08/14 00:35:49;;;;;;;9.45;5.30;;;21.80;93.40;;;;;;4977097;28;20059;-61
2022/08/14 00:38:18;;;;;;;6.85;5.25;;;21.80;93.80;;;;;;4993951;28;20160;-62
2022/08/14 00:40:46;;;;;;;7.43;5.90;;;21.80;94.20;;;;;;4975116;28;20100;-62
2022/08/14 00:43:14;;;;;;;8.38;5.70;;;21.70;94.50;;;;;;4994106;28;20077;-61
2022/08/14 00:45:41;;;;;;;13.18;5.82;;;21.60;94.90;;;;;;4968376;28;20046;-62
2022/08/14 00:48:09;;;;;;;9.80;5.60;;;21.60;95.20;;;;;;4974642;28;20471;-62
2022/08/14 00:50:36;;;;;;;14.75;6.13;;;21.60;95.50;;;;;;4974560;28;20043;-62
2022/08/14 00:53:04;;;;;;;7.50;5.60;;;21.50;96.00;;;;;;4973621;28;20089;-62
2022/08/14 00:55:34;;;;;;;14.05;5.80;;;21.50;96.30;;;;;;4973790;28;20054;-61
2022/08/14 01:00:49;;;;;;;9.32;5.97;;;21.40;97.10;;;;;;4983953;28;20050;-61
2022/08/14 01:03:17;;;;;;;12.27;5.72;;;21.40;97.30;;;;;;4976352;28;20108;-63
2022/08/14 01:05:48;;;;;;;10.55;5.80;;;21.40;97.70;;;;;;4993759;28;20057;-62
2022/08/14 01:08:18;;;;;;;11.63;5.65;;;21.40;97.80;;;;;;4991866;28;20406;-61
2022/08/14 01:10:51;;;;;;;14.10;5.68;;;21.40;98.20;;;;;;4956999;28;20046;-62
2022/08/14 01:13:22;;;;;;;13.65;6.78;;;21.40;98.40;;;;;;4974412;28;20062;-62
2022/08/14 01:15:51;;;;;;;10.52;6.45;;;21.30;98.60;;;;;;4973413;28;20529;-62
2022/08/14 01:21:07;;;;;;;10.48;6.07;;;21.30;98.90;;;;;;4973276;28;20547;-62
2022/08/14 01:23:39;;;;;;;9.05;6.15;;;21.30;99.20;;;;;;4977165;28;20054;-62
2022/08/14 01:26:06;;;;;;;8.68;6.13;;;21.30;99.40;;;;;;4976502;28;20054;-63
2022/08/14 01:28:36;;;;;;;11.52;6.95;;;21.30;99.60;;;;;;4975941;28;20058;-62
2022/08/14 01:31:08;;;;;;;9.40;6.22;;;21.30;99.70;;;;;;4993039;28;20049;-61
2022/08/14 01:33:39;;;;;;;11.68;6.80;;;21.30;99.90;;;;;;4993824;28;20050;-61
2022/08/14 01:36:08;;;;;;;9.35;6.20;;;21.20;99.90;;;;;;4992597;28;20050;-62
2022/08/14 01:38:37;;;;;;;8.32;5.85;;;21.30;99.90;;;;;;4992967;28;20073;-61
2022/08/14 01:41:07;;;;;;;11.63;7.05;;;21.20;99.90;;;;;;4975906;28;20439;-62
2022/08/14 01:43:43;;;;;;;12.82;7.10;;;21.20;99.90;;;;;;4975439;28;20058;-62
2022/08/14 01:46:11;;;;;;;8.98;7.18;;;21.20;99.90;;;;;;4976207;28;20050;-62
2022/08/14 01:48:43;;;;;;;13.25;6.85;;;21.20;99.90;;;;;;4993568;28;20417;-63
2022/08/14 01:51:11;;;;;;;11.43;7.75;;;21.20;99.90;;;;;;4992350;28;20057;-63
2022/08/14 01:53:42;;;;;;;22.95;7.15;;;21.20;99.90;;;;;;4961592;28;20066;-62
2022/08/14 01:56:09;;;;;;;9.45;6.50;;;21.10;99.90;;;;;;4973151;28;20502;-62
2022/08/14 01:58:36;;;;;;;13.13;6.90;;;21.10;99.90;;;;;;4957214;28;20066;-63
2022/08/14 02:01:05;;;;;;;12.07;7.15;;;21.10;99.90;;;;;;4992606;28;20089;-62
2022/08/14 02:03:39;;;;;;;13.20;6.80;;;21.10;99.90;;;;;;4975485;28;20062;-62
2022/08/14 02:06:07;;;;;;;9.40;7.07;;;21.00;99.90;;;;;;4978708;28;20442;-62
2022/08/14 02:08:36;;;;;;;8.15;7.00;;;21.00;99.90;;;;;;4997097;28;20513;-62
2022/08/14 02:11:24;;;;;;;10.23;7.10;;;21.00;99.90;;;;;;4995968;28;20068;-62
2022/08/14 02:13:57;;;;;;;10.73;7.13;;;21.00;99.90;;;;;;4979432;28;20082;-62
2022/08/14 02:16:25;;;;;;;13.35;7.00;;;21.00;99.90;;;;;;4996892;28;20050;-61
2022/08/14 02:18:54;;;;;;;8.48;7.30;;;20.90;99.90;;;;;;4995958;28;20101;-61
2022/08/14 02:21:21;;;;;;;13.27;6.90;;;20.90;99.90;;;;;;4996337;28;20100;-62
2022/08/14 02:23:50;;;;;;;10.50;7.55;;;20.90;99.90;;;;;;4996366;28;20588;-61
2022/08/14 02:26:21;;;;;;;11.30;7.53;;;20.90;99.90;;;;;;4995509;28;20457;-62
2022/08/14 02:28:50;;;;;;;7.82;6.97;;;20.90;99.90;;;;;;4996801;28;20579;-61
2022/08/14 02:31:18;;;;;;;9.80;6.80;;;20.90;99.90;;;;;;4978266;28;20129;-61
2022/08/14 02:33:45;;;;;;;11.60;8.32;;;20.80;99.90;;;;;;4996186;28;20089;-61
2022/08/14 02:36:13;;;;;;;10.95;6.85;;;20.80;99.90;;;;;;4996507;28;20046;-62
2022/08/14 02:38:40;;;;;;;10.20;7.57;;;20.80;99.90;;;;;;4995836;28;20054;-61
2022/08/14 02:41:10;;;;;;;10.60;7.00;;;20.80;99.90;;;;;;4989846;28;20064;-61
2022/08/14 02:43:38;;;;;;;12.60;7.43;;;20.80;99.90;;;;;;4977103;28;20418;-63
2022/08/14 02:46:08;;;;;;;10.52;7.32;;;20.80;99.90;;;;;;4976358;28;20051;-62
2022/08/14 02:48:38;;;;;;;11.65;7.85;;;20.80;99.90;;;;;;4976953;28;20082;-62
2022/08/14 02:51:09;;;;;;;14.15;8.40;;;20.80;99.90;;;;;;4959482;28;20046;-61
2022/08/14 02:53:39;;;;;;;9.13;7.50;;;20.80;99.90;;;;;;4991496;28;20050;-62
2022/08/14 02:56:07;;;;;;;13.45;8.30;;;20.70;99.90;;;;;;4996182;28;20130;-61
2022/08/14 02:58:38;;;;;;;9.65;7.85;;;20.70;99.90;;;;;;4996189;28;20050;-61
2022/08/14 03:01:08;;;;;;;11.73;7.88;;;20.70;99.90;;;;;;4977818;28;20061;-62
2022/08/14 03:03:35;;;;;;;14.88;7.95;;;20.70;99.90;;;;;;4996294;28;20064;-61
2022/08/14 03:06:03;;;;;;;11.95;8.00;;;20.70;99.90;;;;;;4995890;28;20097;-61
2022/08/14 03:08:32;;;;;;;11.65;7.57;;;20.70;99.90;;;;;;4995268;28;20042;-62
2022/08/14 03:10:59;;;;;;;12.52;7.43;;;20.70;99.90;;;;;;4995730;28;20089;-61
2022/08/14 03:13:27;;;;;;;12.00;7.25;;;20.70;99.90;;;;;;4995197;28;20105;-62
2022/08/14 03:15:54;;;;;;;9.50;7.45;;;20.70;99.90;;;;;;4994997;28;20046;-61
2022/08/14 03:18:23;;;;;;;8.95;7.25;;;20.70;99.90;;;;;;4995542;28;20078;-62
2022/08/14 03:20:50;;;;;;;10.27;8.15;;;20.70;99.90;;;;;;4994907;28;20585;-61
2022/08/14 03:23:17;;;;;;;8.55;7.32;;;20.70;99.90;;;;;;4995287;28;20062;-61
2022/08/14 03:25:45;;;;;;;8.98;6.90;;;20.70;99.90;;;;;;4995819;28;20087;-62
2022/08/14 03:28:14;;;;;;;11.20;7.50;;;20.70;99.90;;;;;;4994758;28;20077;-60
2022/08/14 03:30:41;;;;;;;10.02;7.45;;;20.60;99.90;;;;;;4995344;28;20051;-61
2022/08/14 03:33:10;;;;;;;9.25;7.40;;;20.70;99.90;;;;;;4977766;28;20510;-62
2022/08/14 03:35:41;;;;;;;7.90;7.03;;;20.70;99.90;;;;;;4964128;28;20055;-61
2022/08/14 03:38:09;;;;;;;9.23;6.88;;;20.70;99.90;;;;;;4976054;28;20094;-61
2022/08/14 03:40:37;;;;;;;10.65;6.47;;;20.70;99.90;;;;;;4976022;28;20109;-61
2022/08/14 03:43:05;;;;;;;10.50;7.20;;;20.70;99.90;;;;;;4975234;28;20049;-60
2022/08/14 03:45:32;;;;;;;8.35;6.40;;;20.70;99.90;;;;;;4976164;28;20086;-61
2022/08/14 03:48:00;;;;;;;11.32;8.23;;;20.60;99.90;;;;;;4958370;28;20059;-62
2022/08/14 03:50:27;;;;;;;9.23;7.20;;;20.60;99.90;;;;;;4988079;28;20521;-61
2022/08/14 03:52:55;;;;;;;11.40;8.32;;;20.60;99.90;;;;;;4976484;28;20129;-61
2022/08/14 03:55:23;;;;;;;10.65;8.15;;;20.60;99.90;;;;;;4994240;28;20047;-61
2022/08/14 03:57:49;;;;;;;10.52;8.05;;;20.60;99.90;;;;;;4994249;28;20051;-61
2022/08/14 04:00:17;;;;;;;9.25;7.57;;;20.50;99.90;;;;;;4977537;28;20495;-61
2022/08/14 04:02:44;;;;;;;10.63;7.55;;;20.50;99.90;;;;;;4956132;28;20054;-61
2022/08/14 04:05:11;;;;;;;10.88;7.50;;;20.50;99.90;;;;;;4974982;28;20046;-61
2022/08/14 04:07:38;;;;;;;13.88;8.07;;;20.50;99.90;;;;;;4958093;28;20078;-61
2022/08/14 04:10:08;;;;;;;9.48;8.32;;;20.50;99.90;;;;;;4974804;28;20050;-62
2022/08/14 04:12:36;;;;;;;9.32;7.30;;;20.40;99.90;;;;;;4975088;28;20530;-61
2022/08/14 04:15:04;;;;;;;15.48;8.25;;;20.40;99.90;;;;;;4958175;28;20155;-61
2022/08/14 04:17:32;;;;;;;12.48;8.18;;;20.40;99.90;;;;;;4993770;28;20047;-61
2022/08/14 04:20:05;;;;;;;12.02;7.53;;;20.40;99.90;;;;;;4976979;28;20065;-61
2022/08/14 04:22:33;;;;;;;10.57;7.68;;;20.40;99.90;;;;;;4994776;28;20105;-63
2022/08/14 04:25:01;;;;;;;15.85;8.23;;;20.40;99.90;;;;;;4976186;28;20080;-64
2022/08/14 04:27:29;;;;;;;12.38;8.88;;;20.40;99.90;;;;;;4994324;28;20050;-64
2022/08/14 04:29:56;;;;;;;12.07;7.50;;;20.40;99.90;;;;;;4993877;28;20406;-64
2022/08/14 04:32:25;;;;;;;15.55;8.40;;;20.40;99.90;;;;;;4993443;28;20046;-62
2022/08/14 04:34:53;;;;;;;26.85;8.85;;;20.40;99.90;;;;;;4994495;28;20054;-62
2022/08/14 04:45:40;;;;;;;10.18;7.32;;;20.30;99.90;;;;;;4991964;28;20502;-61
2022/08/14 04:48:14;;;;;;;9.98;8.52;;;20.40;99.90;;;;;;4976862;28;20050;-62
2022/08/14 04:50:44;;;;;;;10.85;8.73;;;20.40;99.90;;;;;;4992908;28;20132;-62
2022/08/14 04:53:12;;;;;;;11.75;8.02;;;20.40;99.90;;;;;;4993059;28;20450;-61
2022/08/14 04:55:41;;;;;;;10.02;8.15;;;20.40;99.90;;;;;;4976831;28;20556;-63
2022/08/14 04:58:09;;;;;;;13.38;8.10;;;20.40;99.90;;;;;;4993948;28;20125;-61
2022/08/14 05:00:37;;;;;;;9.93;7.50;;;20.40;99.90;;;;;;4992077;28;20081;-61
2022/08/14 05:03:04;;;;;;;12.95;8.35;;;20.40;99.90;;;;;;4993695;28;20046;-62
2022/08/14 05:05:32;;;;;;;9.15;8.23;;;20.40;99.90;;;;;;4992718;28;20105;-62
2022/08/14 05:08:11;;;;;;;11.65;8.20;;;20.40;99.90;;;;;;4993041;28;20061;-61
2022/08/14 05:10:40;;;;;;;10.85;8.80;;;20.40;99.90;;;;;;4957163;28;20063;-62
2022/08/14 05:13:09;;;;;;;10.52;8.80;;;20.50;99.90;;;;;;4973718;28;20140;-62
2022/08/14 05:15:38;;;;;;;10.52;8.23;;;20.50;99.90;;;;;;4962063;28;20142;-61
2022/08/14 05:18:12;;;;;;;11.68;7.88;;;20.50;99.90;;;;;;4993630;28;20054;-62
2022/08/14 05:20:41;;;;;;;10.13;8.18;;;20.60;99.90;;;;;;4992956;28;20057;-62
2022/08/14 05:23:08;;;;;;;9.25;8.25;;;20.60;99.90;;;;;;4992412;28;20058;-63
2022/08/14 05:25:35;;;;;;;11.95;8.57;;;20.70;99.90;;;;;;4992862;28;20054;-62
2022/08/14 05:28:17;;;;;;;12.40;8.18;;;20.80;99.90;;;;;;4975422;28;20062;-63
2022/08/14 05:30:46;;;;;;;11.70;8.30;;;20.80;99.90;;;;;;4975934;28;20490;-63
2022/08/14 05:33:13;;;;;;;16.40;7.97;;;20.90;99.90;;;;;;4993589;28;20459;-62
2022/08/14 05:35:40;;;;;;;10.50;8.35;;;21.00;99.90;;;;;;4975545;28;20062;-62
2022/08/14 05:38:08;;;;;;;8.20;7.00;;;21.20;99.90;;;;;;4992868;28;20060;-62
2022/08/14 05:40:35;;;;;;;10.15;7.50;;;21.20;99.90;;;;;;4961269;28;20534;-62
2022/08/14 05:43:02;;;;;;;12.07;7.72;;;21.30;99.90;;;;;;4978735;28;20110;-62
2022/08/14 05:45:30;;;;;;;9.32;7.88;;;21.40;99.90;;;;;;4963332;28;20050;-61
2022/08/14 05:47:57;;;;;;;10.98;7.50;;;21.60;99.90;;;;;;4962914;28;20051;-63
2022/08/14 05:50:23;;;;;;;9.70;7.07;;;21.80;99.90;;;;;;4979851;28;20051;-61
2022/08/14 05:52:51;;;;;;;7.68;6.93;;;22.00;99.90;;;;;;4962854;28;20128;-62
2022/08/14 05:55:18;;;;;;;7.75;6.90;;;22.20;99.90;;;;;;4962532;28;20129;-62
2022/08/14 05:57:49;;;;;;;10.60;7.10;;;22.40;99.90;;;;;;4963033;28;20058;-62
2022/08/14 06:00:18;;;;;;;12.52;7.70;;;22.60;99.90;;;;;;4963184;28;20062;-62
2022/08/14 06:02:46;;;;;;;10.80;7.30;;;22.80;99.90;;;;;;4979504;28;20093;-61
2022/08/14 06:05:13;;;;;;;8.00;6.60;;;23.00;99.90;;;;;;4963163;28;20109;-62
2022/08/14 06:07:40;;;;;;;7.88;6.10;;;23.20;99.90;;;;;;4993700;28;20050;-62
2022/08/14 06:10:09;;;;;;;8.77;6.93;;;23.50;99.90;;;;;;4980325;28;20058;-61
2022/08/14 06:12:37;;;;;;;12.18;6.75;;;23.60;99.60;;;;;;4981975;28;20050;-61
2022/08/14 06:15:07;;;;;;;8.82;6.63;;;23.80;98.90;;;;;;4971102;28;20050;-62
2022/08/14 06:17:43;;;;;;;8.90;6.88;;;24.00;98.30;;;;;;4966069;28;20078;-62
2022/08/14 06:20:13;;;;;;;8.75;6.03;;;24.20;98.00;;;;;;4993279;28;20467;-61
2022/08/14 06:22:40;;;;;;;7.35;6.13;;;24.30;97.90;;;;;;4972327;28;20065;-62
2022/08/14 06:25:08;;;;;;;9.00;7.03;;;24.40;97.80;;;;;;4989719;28;20085;-62
2022/08/14 06:27:38;;;;;;;9.48;6.97;;;24.60;97.50;;;;;;4996501;28;20461;-63
2022/08/14 06:30:06;;;;;;;9.55;6.53;;;24.70;97.10;;;;;;4975301;28;20505;-62
2022/08/14 06:32:33;;;;;;;11.38;6.78;;;24.90;96.70;;;;;;4976685;28;20086;-62
2022/08/14 06:35:00;;;;;;;8.55;6.35;;;25.30;96.30;;;;;;4995784;28;20125;-62
2022/08/14 06:37:39;;;;;;;7.30;6.10;;;25.60;95.60;;;;;;4971988;28;20074;-62
2022/08/14 06:40:07;;;;;;;8.45;5.78;;;26.20;94.20;;;;;;4997709;28;20108;-62
2022/08/14 06:42:34;;;;;;;8.35;5.95;;;26.70;93.60;;;;;;4991080;28;20490;-62
2022/08/14 06:45:01;;;;;;;8.38;5.57;;;27.20;92.60;;;;;;4988560;28;20126;-63
2022/08/14 06:47:27;;;;;;;8.50;5.80;;;27.60;91.80;;;;;;4994777;28;20613;-62
2022/08/14 06:49:54;;;;;;;8.48;5.38;;;28.10;91.30;;;;;;4974628;28;20058;-61
2022/08/14 06:52:21;;;;;;;8.45;6.13;;;28.60;90.60;;;;;;4970424;28;20062;-62
2022/08/14 06:54:49;;;;;;;6.90;5.70;;;29.00;89.40;;;;;;4988572;28;20050;-62
2022/08/14 06:57:16;;;;;;;8.93;7.03;;;29.60;88.10;;;;;;4971554;28;20058;-61
2022/08/14 06:59:43;;;;;;;8.90;6.22;;;29.90;86.40;;;;;;4973992;28;20137;-62
2022/08/14 07:07:40;;;;;;;6.50;5.80;;;30.30;83.50;;;;;;4985608;28;20054;-62
2022/08/14 07:10:08;;;;;;;6.88;6.15;;;30.70;82.80;;;;;;4972114;28;20054;-62
2022/08/14 07:12:35;;;;;;;9.73;6.38;;;30.80;81.60;;;;;;4970423;28;20050;-63
2022/08/14 07:15:03;;;;;;;6.65;5.68;;;30.80;81.10;;;;;;4992437;28;20058;-63
2022/08/14 07:17:30;;;;;;;7.53;5.82;;;30.90;80.80;;;;;;4987840;28;20054;-61
2022/08/14 07:19:57;;;;;;;8.23;6.10;;;31.20;80.10;;;;;;4975886;28;20132;-62
2022/08/14 07:22:24;;;;;;;7.50;6.45;;;31.40;79.80;;;;;;4987901;28;20451;-62
2022/08/14 07:24:50;;;;;;;10.35;5.70;;;31.70;79.20;;;;;;4970885;28;20121;-62
2022/08/14 07:27:19;;;;;;;8.25;5.15;;;31.90;78.50;;;;;;4971082;28;20086;-63
2022/08/14 07:29:45;;;;;;;8.05;5.40;;;32.20;77.90;;;;;;4973712;28;20054;-62
2022/08/14 07:32:12;;;;;;;6.65;5.22;;;32.60;77.20;;;;;;4970150;28;20089;-62
2022/08/14 07:34:39;;;;;;;6.53;5.82;;;33.10;76.50;;;;;;4985651;28;20350;-63
2022/08/14 07:37:06;;;;;;;6.15;5.55;;;33.20;75.40;;;;;;4985496;28;20042;-63
2022/08/14 07:39:33;;;;;;;6.78;5.57;;;33.20;75.00;;;;;;4973273;28;20105;-62
2022/08/14 07:41:59;;;;;;;6.60;4.93;;;33.20;74.10;;;;;;4970025;28;20054;-63
2022/08/14 07:44:28;;;;;;;12.00;5.30;;;33.50;74.10;;;;;;4986910;28;20129;-63
2022/08/14 07:46:54;;;;;;;5.85;4.80;;;33.60;73.20;;;;;;4986664;28;20047;-62
2022/08/14 07:49:21;;;;;;;6.25;4.65;;;34.10;73.10;;;;;;4986784;28;20463;-62
2022/08/14 07:51:48;;;;;;;7.13;4.80;;;34.00;72.60;;;;;;4985313;28;20112;-61
2022/08/14 07:54:17;;;;;;;7.43;4.90;;;34.20;72.50;;;;;;4986455;28;20051;-63
2022/08/14 07:56:44;;;;;;;5.70;4.70;;;34.10;71.60;;;;;;4991291;28;20469;-62
2022/08/14 07:59:11;;;;;;;7.25;4.35;;;34.10;71.30;;;;;;4986677;28;20484;-62
2022/08/14 08:01:40;;;;;;;6.22;5.47;;;34.00;71.20;;;;;;4970605;28;20129;-62
2022/08/14 08:04:08;;;;;;;8.85;5.18;;;34.00;70.80;;;;;;4988190;28;20763;-63
2022/08/14 08:06:37;;;;;;;6.43;4.65;;;34.00;70.70;;;;;;4970161;28;20057;-62
2022/08/14 08:09:04;;;;;;;7.20;4.35;;;34.00;70.60;;;;;;4969802;28;20142;-63
2022/08/14 08:11:34;;;;;;;5.57;4.45;;;34.10;70.50;;;;;;4965826;28;20093;-62
2022/08/14 08:14:05;;;;;;;8.65;4.50;;;34.30;70.40;;;;;;4991065;28;20475;-62
2022/08/14 08:16:35;;;;;;;7.18;4.72;;;34.50;70.40;;;;;;4968745;28;20053;-62
2022/08/14 08:19:07;;;;;;;5.30;4.32;;;34.60;69.80;;;;;;4987262;28;20498;-62
2022/08/14 08:21:38;;;;;;;6.70;4.32;;;34.80;68.70;;;;;;4971029;28;20116;-62
2022/08/14 08:24:05;;;;;;;5.45;4.50;;;34.80;69.20;;;;;;4976991;28;20067;-62
2022/08/14 08:26:33;;;;;;;4.13;3.72;;;35.00;68.90;;;;;;4971778;28;20392;-62
2022/08/14 08:28:59;;;;;;;5.90;4.20;;;35.20;68.60;;;;;;4968446;28;20510;-62
2022/08/14 08:31:26;;;;;;;5.72;3.70;;;34.80;68.30;;;;;;4966271;28;20090;-62
2022/08/14 08:33:53;;;;;;;5.25;4.22;;;35.30;68.30;;;;;;4950756;28;20073;-62
2022/08/14 08:36:22;;;;;;;6.38;4.15;;;35.50;67.80;;;;;;4970749;28;20081;-62
2022/08/14 08:38:49;;;;;;;5.45;3.75;;;35.80;67.70;;;;;;4965682;28;20047;-63
2022/08/14 08:41:16;;;;;;;5.57;4.40;;;35.80;67.20;;;;;;4950360;28;20055;-62
2022/08/14 08:43:43;;;;;;;4.78;3.70;;;36.10;67.20;;;;;;4953371;28;20082;-62
2022/08/14 08:46:13;;;;;;;5.35;3.80;;;36.50;67.00;;;;;;4966583;28;20085;-63
2022/08/14 08:48:45;;;;;;;4.97;3.80;;;37.00;65.80;;;;;;4965988;28;20057;-62
2022/08/14 08:51:23;;;;;;;4.45;3.90;;;37.00;65.20;;;;;;4948192;28;20122;-62
2022/08/14 08:53:57;;;;;;;7.10;3.75;;;37.00;64.70;;;;;;4955230;28;20077;-63
2022/08/14 08:56:34;;;;;;;4.32;3.58;;;36.90;64.50;;;;;;4973503;28;20090;-62
2022/08/14 08:59:01;;;;;;;7.07;3.55;;;36.80;64.70;;;;;;4949772;28;20058;-61
2022/08/14 09:01:29;;;;;;;4.68;3.47;;;36.20;64.40;;;;;;4967297;28;20448;-62
2022/08/14 09:04:02;;;;;;;4.93;3.45;;;36.50;64.00;;;;;;4953072;28;20054;-63
2022/08/14 09:06:30;;;;;;;3.92;3.28;;;36.50;64.10;;;;;;4971067;28;20054;-63
2022/08/14 09:08:57;;;;;;;7.43;3.15;;;37.00;63.70;;;;;;4965388;28;20518;-62
2022/08/14 09:11:25;;;;;;;10.15;3.67;;;36.90;63.50;;;;;;4949114;28;20137;-62
2022/08/14 09:13:53;;;;;;;3.83;3.08;;;37.10;63.40;;;;;;4949131;28;20042;-62
2022/08/14 09:16:22;;;;;;;4.28;3.03;;;37.00;62.80;;;;;;4966114;28;20498;-62
2022/08/14 09:18:48;;;;;;;3.90;3.07;;;37.10;62.90;;;;;;4966063;28;20164;-62
2022/08/14 09:21:17;;;;;;;4.85;3.45;;;37.40;63.20;;;;;;4964458;28;20043;-63
2022/08/14 09:23:46;;;;;;;3.97;3.33;;;37.30;63.10;;;;;;4970612;28;20522;-62
2022/08/14 09:26:13;;;;;;;5.30;3.17;;;37.70;62.80;;;;;;4964964;28;20307;-63
2022/08/14 09:28:39;;;;;;;4.18;3.63;;;37.80;62.60;;;;;;4964614;28;20054;-64
2022/08/14 09:31:07;;;;;;;7.43;3.55;;;38.10;62.10;;;;;;4948688;28;20078;-62
2022/08/14 09:33:55;;;;;;;5.40;3.53;;;38.20;61.90;;;;;;4952191;28;20047;-62
2022/08/14 09:36:40;;;;;;;6.45;3.30;;;38.00;60.90;;;;;;4949218;28;20102;-63
2022/08/14 09:39:19;;;;;;;4.88;3.42;;;37.80;60.80;;;;;;4964841;28;20082;-62
2022/08/14 09:41:58;;;;;;;4.55;3.67;;;37.60;61.00;;;;;;4962893;28;20134;-63
2022/08/14 09:44:41;;;;;;;4.70;3.67;;;37.60;61.50;;;;;;4950609;28;20483;-63
2022/08/14 09:47:09;;;;;;;5.13;3.20;;;37.70;61.00;;;;;;4967151;28;20806;-63
2022/08/14 09:49:38;;;;;;;4.55;3.28;;;37.80;61.60;;;;;;4969067;28;20474;-62
2022/08/14 09:52:09;;;;;;;3.85;3.22;;;37.90;61.20;;;;;;4953145;28;20087;-63
2022/08/14 09:54:41;;;;;;;4.78;3.30;;;37.70;61.50;;;;;;4963237;28;20577;-62
2022/08/14 09:57:09;;;;;;;3.70;3.20;;;38.10;61.20;;;;;;4966180;28;20053;-63
2022/08/14 09:59:45;;;;;;;4.72;3.58;;;38.00;61.40;;;;;;4954760;28;20086;-62
2022/08/14 10:02:26;;;;;;;4.35;3.70;;;37.80;61.10;;;;;;4949559;28;20069;-62
2022/08/14 10:05:01;;;;;;;4.07;3.20;;;37.70;61.20;;;;;;4950295;28;20057;-62
2022/08/14 10:07:33;;;;;;;6.63;3.30;;;37.80;61.00;;;;;;4966494;28;20051;-63
2022/08/14 10:10:02;;;;;;;3.42;3.10;;;37.80;61.30;;;;;;4966887;28;20125;-62
2022/08/14 10:12:45;;;;;;;;;;;37.80;60.80;;;;;;4947360;28;20545;-63
2022/08/14 10:15:21;;;;;;;4.35;3.55;;;37.60;60.50;;;;;;4965989;28;20348;-62
2022/08/14 10:17:49;;;;;;;4.35;3.53;;;37.70;60.30;;;;;;4968062;28;20118;-62
2022/08/14 10:20:20;;;;;;;5.30;3.63;;;37.60;60.90;;;;;;4968453;28;20554;-63
2022/08/14 10:22:48;;;;;;;3.75;3.28;;;37.70;61.00;;;;;;4950074;28;20051;-62
2022/08/14 10:25:18;;;;;;;6.72;3.78;;;37.70;61.00;;;;;;4967411;28;20051;-62
2022/08/14 10:27:48;;;;;;;4.00;3.25;;;37.90;60.60;;;;;;4950192;28;20106;-62
2022/08/14 10:30:19;;;;;;;4.88;3.10;;;38.00;61.10;;;;;;4972856;28;20677;-62
2022/08/14 10:32:47;;;;;;;4.18;2.95;;;37.70;60.70;;;;;;4971563;28;20454;-63
2022/08/14 10:35:15;;;;;;;3.83;2.97;;;37.70;60.40;;;;;;4970610;28;20567;-62
2022/08/14 10:37:47;;;;;;;5.03;2.92;;;37.70;60.00;;;;;;4970307;28;20050;-62
2022/08/14 10:40:25;;;;;;;6.15;3.10;;;38.10;60.50;;;;;;4975170;28;20061;-63
2022/08/14 10:42:52;;;;;;;4.70;3.10;;;37.80;60.20;;;;;;4950939;28;20061;-63
2022/08/14 10:45:20;;;;;;;4.43;2.85;;;38.00;59.90;;;;;;4968284;28;20109;-63
2022/08/14 10:47:48;;;;;;;4.60;2.90;;;38.00;59.70;;;;;;4969063;28;20047;-63
2022/08/14 10:50:15;;;;;;;4.25;2.83;;;37.90;59.80;;;;;;4973423;28;20483;-63
2022/08/14 10:52:45;;;;;;;3.67;2.92;;;37.80;60.00;;;;;;4955736;28;20481;-63
2022/08/14 10:55:14;;;;;;;6.25;2.90;;;37.70;59.90;;;;;;4967037;28;20117;-62
2022/08/14 10:57:50;;;;;;;;;;;37.70;60.00;;;;;;4950194;28;20055;-62
2022/08/14 11:00:19;;;;;;;3.28;2.88;;;37.30;60.20;;;;;;4969853;28;19921;-62
2022/08/14 11:02:57;;;;;;;4.13;2.92;;;37.70;60.30;;;;;;4968297;28;20490;-62
2022/08/14 11:05:26;;;;;;;3.72;3.00;;;37.70;60.00;;;;;;4953938;28;20498;-62
2022/08/14 11:07:57;;;;;;;4.10;3.15;;;37.70;60.70;;;;;;4969743;28;20047;-62
2022/08/14 11:10:26;;;;;;;3.65;2.90;;;37.80;60.60;;;;;;4969768;28;20082;-62
2022/08/14 11:12:56;;;;;;;7.88;3.28;;;38.20;60.00;;;;;;4953412;28;20050;-62
2022/08/14 11:15:25;;;;;;;3.20;2.90;;;38.40;59.70;;;;;;4972527;28;20047;-62
2022/08/14 11:17:53;;;;;;;4.88;3.05;;;38.20;59.90;;;;;;4969937;28;20102;-63
2022/08/14 11:20:22;;;;;;;4.07;3.20;;;38.30;60.00;;;;;;4955207;28;20086;-63
2022/08/14 11:22:51;;;;;;;;;;;38.30;59.90;;;;;;4968653;28;20616;-61
2022/08/14 11:25:19;;;;;;;5.35;3.20;;;38.10;59.90;;;;;;4969572;28;19972;-62
2022/08/14 11:27:47;;;;;;;4.83;3.20;;;38.20;59.80;;;;;;4973240;28;20066;-63
2022/08/14 11:30:18;;;;;;;4.60;3.20;;;37.90;59.90;;;;;;4967215;28;20310;-63
2022/08/14 11:32:48;;;;;;;5.30;2.97;;;38.20;59.50;;;;;;4949466;28;20121;-62
2022/08/14 11:35:17;;;;;;;4.53;3.05;;;38.60;59.60;;;;;;4968465;28;20057;-63
2022/08/14 11:37:51;;;;;;;;;;;38.60;59.60;;;;;;4951605;28;20122;-63
2022/08/14 11:40:18;;;;;;;5.78;3.13;;;39.00;59.70;;;;;;4954054;28;19936;-63
2022/08/14 11:42:47;;;;;;;3.53;3.10;;;38.90;59.70;;;;;;4956907;28;20082;-62
2022/08/14 11:45:16;;;;;;;5.30;3.05;;;39.00;58.90;;;;;;4952347;28;20094;-63
2022/08/14 11:47:43;;;;;;;5.32;3.05;;;39.00;58.60;;;;;;4967286;28;20051;-62
2022/08/14 11:50:17;;;;;;;4.50;3.20;;;39.00;58.70;;;;;;4951959;28;20050;-62
2022/08/14 11:52:45;;;;;;;3.95;3.40;;;39.00;58.60;;;;;;4968239;28;20047;-63
2022/08/14 11:55:13;;;;;;;4.32;3.10;;;38.80;58.80;;;;;;4969385;28;20078;-63
2022/08/14 11:57:42;;;;;;;6.63;3.65;;;38.80;59.00;;;;;;4967743;28;20047;-62
2022/08/14 12:00:11;;;;;;;6.35;3.75;;;38.60;58.80;;;;;;4955516;28;20046;-62
2022/08/14 12:02:50;;;;;;;5.55;3.38;;;38.60;58.60;;;;;;4948415;28;20047;-63
2022/08/14 12:05:29;;;;;;;5.05;3.40;;;38.30;59.10;;;;;;4965842;28;20077;-62
2022/08/14 12:07:56;;;;;;;3.75;3.20;;;38.70;59.20;;;;;;4950850;28;20051;-63
2022/08/14 12:10:23;;;;;;;3.65;2.92;;;39.20;58.90;;;;;;4968931;28;20452;-62
2022/08/14 12:12:53;;;;;;;5.00;3.28;;;39.40;58.20;;;;;;4956554;28;20473;-62
2022/08/14 12:15:29;;;;;;;5.50;3.55;;;39.40;58.00;;;;;;4967962;28;20049;-63
2022/08/14 12:17:59;;;;;;;3.78;3.33;;;39.20;58.20;;;;;;4975152;28;20521;-62
2022/08/14 12:20:31;;;;;;;4.00;3.25;;;39.10;58.00;;;;;;4969730;28;20550;-61
2022/08/14 12:22:59;;;;;;;5.03;3.03;;;39.00;58.20;;;;;;4954865;28;20055;-62
2022/08/14 12:25:26;;;;;;;4.70;3.17;;;38.80;58.20;;;;;;4986955;28;20462;-62
2022/08/14 12:27:54;;;;;;;5.18;3.25;;;38.50;58.60;;;;;;4987605;28;20043;-62
2022/08/14 12:30:30;;;;;;;7.15;3.50;;;39.10;58.50;;;;;;4987158;28;20054;-62
2022/08/14 12:32:58;;;;;;;4.55;3.50;;;38.70;58.00;;;;;;4988818;28;20101;-63
2022/08/14 12:35:36;;;;;;;5.72;3.42;;;38.80;58.10;;;;;;4968088;28;20105;-62
2022/08/14 12:38:03;;;;;;;4.18;3.03;;;39.10;58.60;;;;;;4965119;28;20050;-63
2022/08/14 12:40:31;;;;;;;4.00;3.30;;;39.30;58.20;;;;;;4992776;28;20470;-63
2022/08/14 12:43:01;;;;;;;5.75;3.78;;;39.10;57.30;;;;;;4987959;28;20073;-62
2022/08/14 12:45:34;;;;;;;5.10;3.38;;;39.10;57.60;;;;;;4986369;28;20566;-62
2022/08/14 12:48:04;;;;;;;4.07;3.63;;;39.20;57.30;;;;;;4966747;28;20541;-62
2022/08/14 12:50:40;;;;;;;4.03;3.63;;;39.10;57.50;;;;;;4967946;28;20494;-62
2022/08/14 12:53:08;;;;;;;3.88;3.22;;;39.20;57.70;;;;;;4987581;28;20112;-62
2022/08/14 12:55:35;;;;;;;3.97;3.10;;;38.80;57.60;;;;;;4989772;28;20050;-62
2022/08/14 12:58:04;;;;;;;5.05;3.40;;;39.20;57.60;;;;;;4987369;28;20121;-63
2022/08/14 13:00:33;;;;;;;6.95;3.83;;;39.30;57.50;;;;;;4987228;28;20043;-62
2022/08/14 13:03:00;;;;;;;4.68;2.75;;;39.60;57.20;;;;;;4989542;28;20042;-63
2022/08/14 13:05:30;;;;;;;3.83;3.42;;;39.60;57.00;;;;;;4986934;28;20129;-62
2022/08/14 13:07:58;;;;;;;3.92;3.47;;;39.90;56.60;;;;;;4970483;28;20383;-62
2022/08/14 13:10:31;;;;;;;7.00;3.80;;;40.00;56.50;;;;;;4972622;28;20133;-62
2022/08/14 13:12:59;;;;;;;4.65;3.28;;;39.70;56.60;;;;;;4969378;28;20143;-62
2022/08/14 13:15:26;;;;;;;4.20;3.30;;;39.40;56.60;;;;;;4987451;28;20092;-62